Main page
METAR-TAF:

METAR-TAF

Airports :

Base d'aéronautique navale de Landivisiau

Landivisiau, France

latitude: 48-31N, longitude: 004-09W, elevation: 106 m

Current weather observation

The report was made 17 minutes ago, at 00:00 UTC
Wind 4 kt from the North/Northwest
Temperature 6°C
Humidity 93%
Pressure 1014 hPa
Visibility 10 km or more

METAR: LFRJ 180000Z AUTO 33004KT 9999 FEW014/// SCT023/// BKN047/// ///TCU 06/05 Q1014

Time: 01:17 (00:17 UTC)


TAF: missing

Weather observations and forecasts of more than 4000 airports (METAR and TAF reports).

The available stations are represented by yellow and red dots on the map.

Hover mouse over dot to see the name of the station.

Then click to see weather observations and forecasts.

To change the map : click on the green buttons with a black cross to zoom in, on the green button with a dash to zoom out, or on the green arrows for adjacent maps.


METAR-TAF: